sensor_id;sensor_type;location;lat;lon;timestamp;temperature;humidity
13251;DHT22;6692;50.710;7.180;2024-01-25T00:01:20;10.40;99.90
13251;DHT22;6692;50.710;7.180;2024-01-25T00:03:20;10.40;99.90
13251;DHT22;6692;50.710;7.180;2024-01-25T00:05:21;10.50;99.90
13251;DHT22;6692;50.710;7.180;2024-01-25T00:07:22;10.50;99.90
13251;DHT22;6692;50.710;7.180;2024-01-25T00:09:22;10.50;99.90
13251;DHT22;6692;50.710;7.180;2024-01-25T00:11:23;10.50;99.90
13251;DHT22;6692;50.710;7.180;2024-01-25T00:13:25;10.50;99.90
13251;DHT22;6692;50.710;7.180;2024-01-25T00:15:25;10.50;99.90
13251;DHT22;6692;50.710;7.180;2024-01-25T00:17:26;10.50;99.90
13251;DHT22;6692;50.710;7.180;2024-01-25T00:19:27;10.50;99.90
13251;DHT22;6692;50.710;7.180;2024-01-25T00:21:28;10.50;99.90
13251;DHT22;6692;50.710;7.180;2024-01-25T00:23:29;10.50;99.90
13251;DHT22;6692;50.710;7.180;2024-01-25T00:25:30;10.50;99.90
13251;DHT22;6692;50.710;7.180;2024-01-25T00:27:30;10.40;99.90
13251;DHT22;6692;50.710;7.180;2024-01-25T00:29:32;10.40;99.90
13251;DHT22;6692;50.710;7.180;2024-01-25T00:31:33;10.40;99.90
13251;DHT22;6692;50.710;7.180;2024-01-25T00:33:33;10.30;99.90
13251;DHT22;6692;50.710;7.180;2024-01-25T00:35:34;10.40;99.90
13251;DHT22;6692;50.710;7.180;2024-01-25T00:37:36;10.30;99.90
13251;DHT22;6692;50.710;7.180;2024-01-25T00:39:37;10.40;99.90
13251;DHT22;6692;50.710;7.180;2024-01-25T00:41:38;10.30;99.90
13251;DHT22;6692;50.710;7.180;2024-01-25T00:43:39;10.40;99.90
13251;DHT22;6692;50.710;7.180;2024-01-25T00:45:41;10.30;99.90
13251;DHT22;6692;50.710;7.180;2024-01-25T00:47:43;10.30;99.90
13251;DHT22;6692;50.710;7.180;2024-01-25T00:49:44;10.30;99.90
13251;DHT22;6692;50.710;7.180;2024-01-25T00:51:46;10.30;99.90
13251;DHT22;6692;50.710;7.180;2024-01-25T00:53:46;10.30;99.90
13251;DHT22;6692;50.710;7.180;2024-01-25T00:55:47;10.30;99.90
13251;DHT22;6692;50.710;7.180;2024-01-25T00:57:49;10.30;99.90
13251;DHT22;6692;50.710;7.180;2024-01-25T00:59:50;10.20;99.90
13251;DHT22;6692;50.710;7.180;2024-01-25T01:01:52;10.20;99.90
13251;DHT22;6692;50.710;7.180;2024-01-25T01:03:52;10.30;99.90
13251;DHT22;6692;50.710;7.180;2024-01-25T01:05:53;10.30;99.90
13251;DHT22;6692;50.710;7.180;2024-01-25T01:07:55;10.30;99.90
13251;DHT22;6692;50.710;7.180;2024-01-25T01:09:56;10.30;99.90
13251;DHT22;6692;50.710;7.180;2024-01-25T01:11:56;10.30;99.90
13251;DHT22;6692;50.710;7.180;2024-01-25T01:13:57;10.40;99.90
13251;DHT22;6692;50.710;7.180;2024-01-25T01:15:59;10.30;99.90
13251;DHT22;6692;50.710;7.180;2024-01-25T01:17:59;10.30;99.90
13251;DHT22;6692;50.710;7.180;2024-01-25T01:20:00;10.30;99.90
13251;DHT22;6692;50.710;7.180;2024-01-25T01:22:01;10.30;99.90
13251;DHT22;6692;50.710;7.180;2024-01-25T01:24:02;10.30;99.90
13251;DHT22;6692;50.710;7.180;2024-01-25T01:26:03;10.20;99.90
13251;DHT22;6692;50.710;7.180;2024-01-25T01:28:04;10.20;99.90
13251;DHT22;6692;50.710;7.180;2024-01-25T01:30:05;10.20;99.90
13251;DHT22;6692;50.710;7.180;2024-01-25T01:32:07;10.10;99.90
13251;DHT22;6692;50.710;7.180;2024-01-25T01:34:08;10.10;99.90
13251;DHT22;6692;50.710;7.180;2024-01-25T01:36:08;10.10;99.90
13251;DHT22;6692;50.710;7.180;2024-01-25T01:38:09;10.00;99.90
13251;DHT22;6692;50.710;7.180;2024-01-25T01:40:10;10.00;99.90
13251;DHT22;6692;50.710;7.180;2024-01-25T01:42:11;9.90;99.90
13251;DHT22;6692;50.710;7.180;2024-01-25T01:44:12;9.90;99.90
13251;DHT22;6692;50.710;7.180;2024-01-25T01:46:23;9.90;99.90
13251;DHT22;6692;50.710;7.180;2024-01-25T01:48:20;9.80;99.90
13251;DHT22;6692;50.710;7.180;2024-01-25T01:50:20;9.80;99.90
13251;DHT22;6692;50.710;7.180;2024-01-25T01:52:21;9.80;99.90
13251;DHT22;6692;50.710;7.180;2024-01-25T01:54:22;9.70;99.90
13251;DHT22;6692;50.710;7.180;2024-01-25T01:56:24;9.70;99.90
13251;DHT22;6692;50.710;7.180;2024-01-25T01:58:25;9.80;99.90
13251;DHT22;6692;50.710;7.180;2024-01-25T02:00:26;9.70;99.90
13251;DHT22;6692;50.710;7.180;2024-01-25T02:02:27;9.70;99.90
13251;DHT22;6692;50.710;7.180;2024-01-25T02:04:28;9.70;99.90
13251;DHT22;6692;50.710;7.180;2024-01-25T02:06:28;9.60;99.90
13251;DHT22;6692;50.710;7.180;2024-01-25T02:08:29;9.60;99.90
13251;DHT22;6692;50.710;7.180;2024-01-25T02:10:30;9.50;99.90
13251;DHT22;6692;50.710;7.180;2024-01-25T02:12:31;9.50;99.90
13251;DHT22;6692;50.710;7.180;2024-01-25T02:14:31;9.40;99.90
13251;DHT22;6692;50.710;7.180;2024-01-25T02:16:32;9.40;99.90
13251;DHT22;6692;50.710;7.180;2024-01-25T02:18:33;9.40;99.90
13251;DHT22;6692;50.710;7.180;2024-01-25T02:20:34;9.30;99.90
13251;DHT22;6692;50.710;7.180;2024-01-25T02:22:35;9.30;99.90
13251;DHT22;6692;50.710;7.180;2024-01-25T02:24:36;9.20;99.90
13251;DHT22;6692;50.710;7.180;2024-01-25T02:26:36;9.20;99.90
13251;DHT22;6692;50.710;7.180;2024-01-25T02:28:37;9.20;99.90
13251;DHT22;6692;50.710;7.180;2024-01-25T02:30:38;9.20;99.90
13251;DHT22;6692;50.710;7.180;2024-01-25T02:32:38;9.20;99.90
13251;DHT22;6692;50.710;7.180;2024-01-25T02:34:39;9.10;99.90
13251;DHT22;6692;50.710;7.180;2024-01-25T02:36:40;9.10;99.90
13251;DHT22;6692;50.710;7.180;2024-01-25T02:38:40;9.10;99.90
13251;DHT22;6692;50.710;7.180;2024-01-25T02:40:42;9.00;99.90
13251;DHT22;6692;50.710;7.180;2024-01-25T02:42:43;9.00;99.90
13251;DHT22;6692;50.710;7.180;2024-01-25T02:44:43;9.00;99.90
13251;DHT22;6692;50.710;7.180;2024-01-25T02:46:44;8.90;99.90
13251;DHT22;6692;50.710;7.180;2024-01-25T02:48:45;8.90;99.90
13251;DHT22;6692;50.710;7.180;2024-01-25T02:50:46;8.90;99.90
13251;DHT22;6692;50.710;7.180;2024-01-25T02:52:46;8.90;99.90
13251;DHT22;6692;50.710;7.180;2024-01-25T02:54:47;8.90;99.90
13251;DHT22;6692;50.710;7.180;2024-01-25T02:56:48;8.90;99.90
13251;DHT22;6692;50.710;7.180;2024-01-25T02:58:48;8.90;99.90
13251;DHT22;6692;50.710;7.180;2024-01-25T03:00:49;8.80;99.90
13251;DHT22;6692;50.710;7.180;2024-01-25T03:02:50;8.80;99.90
13251;DHT22;6692;50.710;7.180;2024-01-25T03:04:51;8.70;99.90
13251;DHT22;6692;50.710;7.180;2024-01-25T03:06:52;8.70;99.90
13251;DHT22;6692;50.710;7.180;2024-01-25T03:08:53;8.70;99.90
13251;DHT22;6692;50.710;7.180;2024-01-25T03:10:53;8.70;99.90
13251;DHT22;6692;50.710;7.180;2024-01-25T03:12:54;8.70;99.90
13251;DHT22;6692;50.710;7.180;2024-01-25T03:14:55;8.70;99.90
13251;DHT22;6692;50.710;7.180;2024-01-25T03:16:56;8.80;99.90
13251;DHT22;6692;50.710;7.180;2024-01-25T03:18:57;8.80;99.90
13251;DHT22;6692;50.710;7.180;2024-01-25T03:20:58;8.90;99.90
13251;DHT22;6692;50.710;7.180;2024-01-25T03:22:59;8.90;99.90
13251;DHT22;6692;50.710;7.180;2024-01-25T03:25:01;8.90;99.90
13251;DHT22;6692;50.710;7.180;2024-01-25T03:27:01;8.90;99.90
13251;DHT22;6692;50.710;7.180;2024-01-25T03:29:02;8.90;99.90
13251;DHT22;6692;50.710;7.180;2024-01-25T03:31:03;8.90;99.90
13251;DHT22;6692;50.710;7.180;2024-01-25T03:33:04;8.90;99.90
13251;DHT22;6692;50.710;7.180;2024-01-25T03:35:05;8.90;99.90
13251;DHT22;6692;50.710;7.180;2024-01-25T03:37:06;8.80;99.90
13251;DHT22;6692;50.710;7.180;2024-01-25T03:39:07;8.80;99.90
13251;DHT22;6692;50.710;7.180;2024-01-25T03:41:08;8.70;99.90
13251;DHT22;6692;50.710;7.180;2024-01-25T03:43:08;8.60;99.90
13251;DHT22;6692;50.710;7.180;2024-01-25T03:45:10;8.60;99.90
13251;DHT22;6692;50.710;7.180;2024-01-25T03:47:10;8.60;99.90
13251;DHT22;6692;50.710;7.180;2024-01-25T03:49:11;8.50;99.90
13251;DHT22;6692;50.710;7.180;2024-01-25T03:51:12;8.50;99.90
13251;DHT22;6692;50.710;7.180;2024-01-25T03:53:13;8.50;99.90
13251;DHT22;6692;50.710;7.180;2024-01-25T03:55:13;8.50;99.90
13251;DHT22;6692;50.710;7.180;2024-01-25T03:57:14;8.50;99.90
13251;DHT22;6692;50.710;7.180;2024-01-25T03:59:15;8.50;99.90
13251;DHT22;6692;50.710;7.180;2024-01-25T04:01:16;8.50;99.90
13251;DHT22;6692;50.710;7.180;2024-01-25T04:03:16;8.50;99.90
13251;DHT22;6692;50.710;7.180;2024-01-25T04:05:18;8.50;99.90
13251;DHT22;6692;50.710;7.180;2024-01-25T04:07:19;8.40;99.90
13251;DHT22;6692;50.710;7.180;2024-01-25T04:09:20;8.50;99.90
13251;DHT22;6692;50.710;7.180;2024-01-25T04:11:21;8.40;99.90
13251;DHT22;6692;50.710;7.180;2024-01-25T04:13:22;8.60;99.90
13251;DHT22;6692;50.710;7.180;2024-01-25T04:15:23;8.60;99.90
13251;DHT22;6692;50.710;7.180;2024-01-25T04:17:24;8.60;99.90
13251;DHT22;6692;50.710;7.180;2024-01-25T04:19:25;8.70;99.90
13251;DHT22;6692;50.710;7.180;2024-01-25T04:21:26;8.70;99.90
13251;DHT22;6692;50.710;7.180;2024-01-25T04:23:26;8.70;99.90
13251;DHT22;6692;50.710;7.180;2024-01-25T04:25:27;8.70;99.90
13251;DHT22;6692;50.710;7.180;2024-01-25T04:27:28;8.70;99.90
13251;DHT22;6692;50.710;7.180;2024-01-25T04:29:28;8.70;99.90
13251;DHT22;6692;50.710;7.180;2024-01-25T04:31:29;8.80;99.90
13251;DHT22;6692;50.710;7.180;2024-01-25T04:33:30;8.80;99.90
13251;DHT22;6692;50.710;7.180;2024-01-25T04:35:31;8.90;99.90
13251;DHT22;6692;50.710;7.180;2024-01-25T04:37:32;8.80;99.90
13251;DHT22;6692;50.710;7.180;2024-01-25T04:39:33;8.90;99.90
13251;DHT22;6692;50.710;7.180;2024-01-25T04:41:33;8.80;99.90
13251;DHT22;6692;50.710;7.180;2024-01-25T04:43:34;8.80;99.90
13251;DHT22;6692;50.710;7.180;2024-01-25T04:45:35;8.70;99.90
13251;DHT22;6692;50.710;7.180;2024-01-25T04:47:37;8.70;99.90
13251;DHT22;6692;50.710;7.180;2024-01-25T04:49:37;8.70;99.90
13251;DHT22;6692;50.710;7.180;2024-01-25T04:51:38;8.60;99.90
13251;DHT22;6692;50.710;7.180;2024-01-25T04:53:38;8.60;99.90
13251;DHT22;6692;50.710;7.180;2024-01-25T04:55:40;8.50;99.90
13251;DHT22;6692;50.710;7.180;2024-01-25T04:57:40;8.50;99.90
13251;DHT22;6692;50.710;7.180;2024-01-25T04:59:42;8.40;99.90
13251;DHT22;6692;50.710;7.180;2024-01-25T05:01:43;8.40;99.90
13251;DHT22;6692;50.710;7.180;2024-01-25T05:03:43;8.40;99.90
13251;DHT22;6692;50.710;7.180;2024-01-25T05:05:44;8.30;99.90
13251;DHT22;6692;50.710;7.180;2024-01-25T05:07:45;8.30;99.90
13251;DHT22;6692;50.710;7.180;2024-01-25T05:09:46;8.20;99.90
13251;DHT22;6692;50.710;7.180;2024-01-25T05:11:47;8.20;99.90
13251;DHT22;6692;50.710;7.180;2024-01-25T05:13:47;8.20;99.90
13251;DHT22;6692;50.710;7.180;2024-01-25T05:15:48;8.10;99.90
13251;DHT22;6692;50.710;7.180;2024-01-25T05:17:49;8.10;99.90
13251;DHT22;6692;50.710;7.180;2024-01-25T05:19:50;8.00;99.90
13251;DHT22;6692;50.710;7.180;2024-01-25T05:21:50;8.00;99.90
13251;DHT22;6692;50.710;7.180;2024-01-25T05:23:52;7.90;99.90
13251;DHT22;6692;50.710;7.180;2024-01-25T05:25:52;7.90;99.90
13251;DHT22;6692;50.710;7.180;2024-01-25T05:27:53;7.90;99.90
13251;DHT22;6692;50.710;7.180;2024-01-25T05:29:54;7.80;99.90
13251;DHT22;6692;50.710;7.180;2024-01-25T05:31:55;7.80;99.90
13251;DHT22;6692;50.710;7.180;2024-01-25T05:33:55;7.80;99.90
13251;DHT22;6692;50.710;7.180;2024-01-25T05:35:56;7.70;99.90
13251;DHT22;6692;50.710;7.180;2024-01-25T05:37:57;7.70;99.90
13251;DHT22;6692;50.710;7.180;2024-01-25T05:39:57;7.70;99.90
13251;DHT22;6692;50.710;7.180;2024-01-25T05:41:59;7.50;99.90
13251;DHT22;6692;50.710;7.180;2024-01-25T05:44:00;7.50;99.90
13251;DHT22;6692;50.710;7.180;2024-01-25T05:46:01;7.40;99.90
13251;DHT22;6692;50.710;7.180;2024-01-25T05:48:02;7.40;99.90
13251;DHT22;6692;50.710;7.180;2024-01-25T05:50:03;7.30;99.90
13251;DHT22;6692;50.710;7.180;2024-01-25T05:52:04;7.20;99.90
13251;DHT22;6692;50.710;7.180;2024-01-25T05:54:05;7.20;99.90
13251;DHT22;6692;50.710;7.180;2024-01-25T05:56:06;7.10;99.90
13251;DHT22;6692;50.710;7.180;2024-01-25T05:58:07;7.00;99.90
13251;DHT22;6692;50.710;7.180;2024-01-25T06:00:08;6.90;99.90
13251;DHT22;6692;50.710;7.180;2024-01-25T06:02:09;6.90;99.90
13251;DHT22;6692;50.710;7.180;2024-01-25T06:04:10;6.80;99.90
13251;DHT22;6692;50.710;7.180;2024-01-25T06:06:11;6.80;99.90
13251;DHT22;6692;50.710;7.180;2024-01-25T06:08:12;6.60;99.90
13251;DHT22;6692;50.710;7.180;2024-01-25T06:10:13;6.60;99.90
13251;DHT22;6692;50.710;7.180;2024-01-25T06:12:14;6.50;99.90
13251;DHT22;6692;50.710;7.180;2024-01-25T06:14:15;6.50;99.90
13251;DHT22;6692;50.710;7.180;2024-01-25T06:16:16;6.50;99.90
13251;DHT22;6692;50.710;7.180;2024-01-25T06:18:16;6.40;99.90
13251;DHT22;6692;50.710;7.180;2024-01-25T06:20:18;6.30;99.90
13251;DHT22;6692;50.710;7.180;2024-01-25T06:22:18;6.30;99.90
13251;DHT22;6692;50.710;7.180;2024-01-25T06:24:19;6.30;99.90
13251;DHT22;6692;50.710;7.180;2024-01-25T06:26:20;6.20;99.90
13251;DHT22;6692;50.710;7.180;2024-01-25T06:28:21;6.20;99.90
13251;DHT22;6692;50.710;7.180;2024-01-25T06:30:22;6.10;99.90
13251;DHT22;6692;50.710;7.180;2024-01-25T06:32:23;6.10;99.90
13251;DHT22;6692;50.710;7.180;2024-01-25T06:34:23;6.10;99.90
13251;DHT22;6692;50.710;7.180;2024-01-25T06:36:24;6.20;99.90
13251;DHT22;6692;50.710;7.180;2024-01-25T06:38:25;6.10;99.90
13251;DHT22;6692;50.710;7.180;2024-01-25T06:40:26;6.10;99.90
13251;DHT22;6692;50.710;7.180;2024-01-25T06:42:28;6.00;99.90
13251;DHT22;6692;50.710;7.180;2024-01-25T06:44:30;6.00;99.90
13251;DHT22;6692;50.710;7.180;2024-01-25T06:46:30;6.00;99.90
13251;DHT22;6692;50.710;7.180;2024-01-25T06:48:30;6.00;99.90
13251;DHT22;6692;50.710;7.180;2024-01-25T06:50:31;6.00;99.90
13251;DHT22;6692;50.710;7.180;2024-01-25T06:52:32;5.90;99.90
13251;DHT22;6692;50.710;7.180;2024-01-25T06:54:32;5.90;99.90
13251;DHT22;6692;50.710;7.180;2024-01-25T06:56:34;5.90;99.90
13251;DHT22;6692;50.710;7.180;2024-01-25T06:58:34;5.90;99.90
13251;DHT22;6692;50.710;7.180;2024-01-25T07:00:35;5.90;99.90
13251;DHT22;6692;50.710;7.180;2024-01-25T07:02:36;5.90;99.90
13251;DHT22;6692;50.710;7.180;2024-01-25T07:04:37;5.80;99.90
13251;DHT22;6692;50.710;7.180;2024-01-25T07:06:38;5.80;99.90
13251;DHT22;6692;50.710;7.180;2024-01-25T07:08:39;5.80;99.90
13251;DHT22;6692;50.710;7.180;2024-01-25T07:10:40;5.80;99.90
13251;DHT22;6692;50.710;7.180;2024-01-25T07:12:40;5.80;99.90
13251;DHT22;6692;50.710;7.180;2024-01-25T07:14:41;5.80;99.90
13251;DHT22;6692;50.710;7.180;2024-01-25T07:16:41;5.80;99.90
13251;DHT22;6692;50.710;7.180;2024-01-25T07:18:42;5.80;99.90
13251;DHT22;6692;50.710;7.180;2024-01-25T07:20:43;5.70;99.90
13251;DHT22;6692;50.710;7.180;2024-01-25T07:22:44;5.70;99.90
13251;DHT22;6692;50.710;7.180;2024-01-25T07:24:45;5.80;99.90
13251;DHT22;6692;50.710;7.180;2024-01-25T07:26:46;5.70;99.90
13251;DHT22;6692;50.710;7.180;2024-01-25T07:28:46;5.70;99.90
13251;DHT22;6692;50.710;7.180;2024-01-25T07:30:47;5.60;99.90
13251;DHT22;6692;50.710;7.180;2024-01-25T07:32:48;5.60;99.90
13251;DHT22;6692;50.710;7.180;2024-01-25T07:34:50;5.60;99.90
13251;DHT22;6692;50.710;7.180;2024-01-25T07:36:51;5.70;99.90
13251;DHT22;6692;50.710;7.180;2024-01-25T07:38:52;5.70;99.90
13251;DHT22;6692;50.710;7.180;2024-01-25T07:40:53;5.60;99.90
13251;DHT22;6692;50.710;7.180;2024-01-25T07:42:53;5.60;99.90
13251;DHT22;6692;50.710;7.180;2024-01-25T07:44:54;5.60;99.90
13251;DHT22;6692;50.710;7.180;2024-01-25T07:46:55;5.70;99.90
13251;DHT22;6692;50.710;7.180;2024-01-25T07:48:55;5.70;99.90
13251;DHT22;6692;50.710;7.180;2024-01-25T07:50:57;5.60;99.90
13251;DHT22;6692;50.710;7.180;2024-01-25T07:52:58;5.60;99.90
13251;DHT22;6692;50.710;7.180;2024-01-25T07:54:58;5.60;99.90
13251;DHT22;6692;50.710;7.180;2024-01-25T07:56:59;5.60;99.90
13251;DHT22;6692;50.710;7.180;2024-01-25T07:59:00;5.70;99.90
13251;DHT22;6692;50.710;7.180;2024-01-25T08:01:02;5.70;99.90
13251;DHT22;6692;50.710;7.180;2024-01-25T08:03:01;5.70;99.90
13251;DHT22;6692;50.710;7.180;2024-01-25T08:05:02;5.70;99.90
13251;DHT22;6692;50.710;7.180;2024-01-25T08:07:03;5.70;99.90
13251;DHT22;6692;50.710;7.180;2024-01-25T08:09:04;5.70;99.90
13251;DHT22;6692;50.710;7.180;2024-01-25T08:11:05;5.80;99.90
13251;DHT22;6692;50.710;7.180;2024-01-25T08:13:06;5.80;99.90
13251;DHT22;6692;50.710;7.180;2024-01-25T08:15:07;5.80;99.90
13251;DHT22;6692;50.710;7.180;2024-01-25T08:17:08;5.80;99.90
13251;DHT22;6692;50.710;7.180;2024-01-25T08:19:09;5.90;99.90
13251;DHT22;6692;50.710;7.180;2024-01-25T08:21:10;5.90;99.90
13251;DHT22;6692;50.710;7.180;2024-01-25T08:23:11;6.00;99.90
13251;DHT22;6692;50.710;7.180;2024-01-25T08:25:11;6.10;99.90
13251;DHT22;6692;50.710;7.180;2024-01-25T08:27:13;6.20;99.90
13251;DHT22;6692;50.710;7.180;2024-01-25T08:29:14;6.20;99.90
13251;DHT22;6692;50.710;7.180;2024-01-25T08:31:15;6.20;99.90
13251;DHT22;6692;50.710;7.180;2024-01-25T08:33:16;6.20;99.90
13251;DHT22;6692;50.710;7.180;2024-01-25T08:35:17;6.30;99.90
13251;DHT22;6692;50.710;7.180;2024-01-25T08:37:18;6.40;99.90
13251;DHT22;6692;50.710;7.180;2024-01-25T08:39:19;6.40;99.90
13251;DHT22;6692;50.710;7.180;2024-01-25T08:41:20;6.60;99.90
13251;DHT22;6692;50.710;7.180;2024-01-25T08:43:21;6.60;99.90
13251;DHT22;6692;50.710;7.180;2024-01-25T08:45:22;6.80;99.90
13251;DHT22;6692;50.710;7.180;2024-01-25T08:47:23;6.70;99.90
13251;DHT22;6692;50.710;7.180;2024-01-25T08:49:24;6.90;99.90
13251;DHT22;6692;50.710;7.180;2024-01-25T08:51:24;6.90;99.90
13251;DHT22;6692;50.710;7.180;2024-01-25T08:53:25;7.00;99.90
13251;DHT22;6692;50.710;7.180;2024-01-25T08:55:28;7.00;99.90
13251;DHT22;6692;50.710;7.180;2024-01-25T08:57:28;7.10;99.90
13251;DHT22;6692;50.710;7.180;2024-01-25T08:59:30;7.30;99.90
13251;DHT22;6692;50.710;7.180;2024-01-25T09:01:31;7.30;99.90
13251;DHT22;6692;50.710;7.180;2024-01-25T09:03:32;7.30;99.90
13251;DHT22;6692;50.710;7.180;2024-01-25T09:05:32;7.40;99.90
13251;DHT22;6692;50.710;7.180;2024-01-25T09:07:33;7.40;99.90
13251;DHT22;6692;50.710;7.180;2024-01-25T09:09:34;7.50;99.90
13251;DHT22;6692;50.710;7.180;2024-01-25T09:11:34;7.60;99.90
13251;DHT22;6692;50.710;7.180;2024-01-25T09:13:36;7.80;99.90
13251;DHT22;6692;50.710;7.180;2024-01-25T09:15:37;7.80;99.90
13251;DHT22;6692;50.710;7.180;2024-01-25T09:17:37;7.90;99.90
13251;DHT22;6692;50.710;7.180;2024-01-25T09:19:39;8.10;99.90
13251;DHT22;6692;50.710;7.180;2024-01-25T09:21:39;8.10;99.90
13251;DHT22;6692;50.710;7.180;2024-01-25T09:23:40;8.20;99.90
13251;DHT22;6692;50.710;7.180;2024-01-25T09:25:41;8.30;99.90
13251;DHT22;6692;50.710;7.180;2024-01-25T09:27:41;8.50;99.90
13251;DHT22;6692;50.710;7.180;2024-01-25T09:29:42;8.50;99.90
13251;DHT22;6692;50.710;7.180;2024-01-25T09:31:43;8.60;99.90
13251;DHT22;6692;50.710;7.180;2024-01-25T09:33:43;8.70;99.90
13251;DHT22;6692;50.710;7.180;2024-01-25T09:35:44;8.70;99.90
13251;DHT22;6692;50.710;7.180;2024-01-25T09:37:45;8.80;99.90
13251;DHT22;6692;50.710;7.180;2024-01-25T09:39:46;8.80;99.90
13251;DHT22;6692;50.710;7.180;2024-01-25T09:41:46;8.90;99.90
13251;DHT22;6692;50.710;7.180;2024-01-25T09:43:47;8.90;99.90
13251;DHT22;6692;50.710;7.180;2024-01-25T09:45:48;9.00;99.90
13251;DHT22;6692;50.710;7.180;2024-01-25T09:47:48;9.10;99.90
13251;DHT22;6692;50.710;7.180;2024-01-25T09:49:49;9.10;99.90
13251;DHT22;6692;50.710;7.180;2024-01-25T09:51:50;9.20;99.90
13251;DHT22;6692;50.710;7.180;2024-01-25T09:53:51;9.30;99.90
13251;DHT22;6692;50.710;7.180;2024-01-25T09:55:57;9.40;99.90
13251;DHT22;6692;50.710;7.180;2024-01-25T09:57:54;9.40;99.90
13251;DHT22;6692;50.710;7.180;2024-01-25T09:59:56;9.60;99.90
13251;DHT22;6692;50.710;7.180;2024-01-25T10:01:57;9.50;99.90
13251;DHT22;6692;50.710;7.180;2024-01-25T10:03:57;9.60;99.90
13251;DHT22;6692;50.710;7.180;2024-01-25T10:05:59;9.60;99.90
13251;DHT22;6692;50.710;7.180;2024-01-25T10:07:59;9.70;99.90
13251;DHT22;6692;50.710;7.180;2024-01-25T10:10:00;9.80;99.90
13251;DHT22;6692;50.710;7.180;2024-01-25T10:12:01;9.80;99.90
13251;DHT22;6692;50.710;7.180;2024-01-25T10:14:02;10.00;99.90
13251;DHT22;6692;50.710;7.180;2024-01-25T10:16:03;10.00;99.90
13251;DHT22;6692;50.710;7.180;2024-01-25T10:18:05;10.00;99.90
13251;DHT22;6692;50.710;7.180;2024-01-25T10:20:06;10.00;99.90
13251;DHT22;6692;50.710;7.180;2024-01-25T10:22:08;10.10;99.90
13251;DHT22;6692;50.710;7.180;2024-01-25T10:24:09;10.10;99.90
13251;DHT22;6692;50.710;7.180;2024-01-25T10:26:09;10.10;99.90
13251;DHT22;6692;50.710;7.180;2024-01-25T10:28:10;10.10;99.90
13251;DHT22;6692;50.710;7.180;2024-01-25T10:30:12;10.20;99.90
13251;DHT22;6692;50.710;7.180;2024-01-25T10:32:13;10.20;99.90
13251;DHT22;6692;50.710;7.180;2024-01-25T10:34:13;10.20;99.90
13251;DHT22;6692;50.710;7.180;2024-01-25T10:36:14;10.20;99.90
13251;DHT22;6692;50.710;7.180;2024-01-25T10:38:16;10.20;99.90
13251;DHT22;6692;50.710;7.180;2024-01-25T10:40:16;10.20;99.90
13251;DHT22;6692;50.710;7.180;2024-01-25T10:42:16;10.20;99.90
13251;DHT22;6692;50.710;7.180;2024-01-25T10:44:17;10.30;99.90
13251;DHT22;6692;50.710;7.180;2024-01-25T10:46:19;10.40;99.90
13251;DHT22;6692;50.710;7.180;2024-01-25T10:48:20;10.30;99.90
13251;DHT22;6692;50.710;7.180;2024-01-25T10:50:21;10.40;99.90
13251;DHT22;6692;50.710;7.180;2024-01-25T10:52:21;10.40;99.90
13251;DHT22;6692;50.710;7.180;2024-01-25T10:54:22;10.50;99.90
13251;DHT22;6692;50.710;7.180;2024-01-25T10:56:23;10.50;99.90
13251;DHT22;6692;50.710;7.180;2024-01-25T10:58:23;10.60;99.90
13251;DHT22;6692;50.710;7.180;2024-01-25T11:00:24;10.70;99.90
13251;DHT22;6692;50.710;7.180;2024-01-25T11:02:25;10.80;99.90
13251;DHT22;6692;50.710;7.180;2024-01-25T11:04:26;10.80;99.90
13251;DHT22;6692;50.710;7.180;2024-01-25T11:06:27;10.80;99.90
13251;DHT22;6692;50.710;7.180;2024-01-25T11:08:27;10.80;99.90
13251;DHT22;6692;50.710;7.180;2024-01-25T11:10:28;10.80;99.90
13251;DHT22;6692;50.710;7.180;2024-01-25T11:12:29;10.80;99.90
13251;DHT22;6692;50.710;7.180;2024-01-25T11:14:29;10.80;99.90
13251;DHT22;6692;50.710;7.180;2024-01-25T11:16:31;10.80;99.90
13251;DHT22;6692;50.710;7.180;2024-01-25T11:18:31;10.70;99.90
13251;DHT22;6692;50.710;7.180;2024-01-25T11:20:33;10.70;99.90
13251;DHT22;6692;50.710;7.180;2024-01-25T11:22:35;10.60;99.90
13251;DHT22;6692;50.710;7.180;2024-01-25T11:24:36;10.60;99.90
13251;DHT22;6692;50.710;7.180;2024-01-25T11:26:35;10.70;99.90
13251;DHT22;6692;50.710;7.180;2024-01-25T11:28:36;10.70;99.90
13251;DHT22;6692;50.710;7.180;2024-01-25T11:30:37;10.80;99.90
13251;DHT22;6692;50.710;7.180;2024-01-25T11:32:37;10.80;99.90
13251;DHT22;6692;50.710;7.180;2024-01-25T11:34:38;10.80;99.90
13251;DHT22;6692;50.710;7.180;2024-01-25T11:36:39;10.90;99.90
13251;DHT22;6692;50.710;7.180;2024-01-25T11:38:39;10.90;99.90
13251;DHT22;6692;50.710;7.180;2024-01-25T11:40:40;10.90;99.90
13251;DHT22;6692;50.710;7.180;2024-01-25T11:42:42;11.00;99.90
13251;DHT22;6692;50.710;7.180;2024-01-25T11:44:43;11.00;99.90
13251;DHT22;6692;50.710;7.180;2024-01-25T11:46:44;11.00;99.90
13251;DHT22;6692;50.710;7.180;2024-01-25T11:48:44;11.10;99.90
13251;DHT22;6692;50.710;7.180;2024-01-25T11:50:45;11.10;99.90
13251;DHT22;6692;50.710;7.180;2024-01-25T11:52:46;11.20;99.90
13251;DHT22;6692;50.710;7.180;2024-01-25T11:54:46;11.20;99.90
13251;DHT22;6692;50.710;7.180;2024-01-25T11:56:47;11.30;99.90
13251;DHT22;6692;50.710;7.180;2024-01-25T11:58:48;11.30;99.90
13251;DHT22;6692;50.710;7.180;2024-01-25T12:00:49;11.40;99.90
13251;DHT22;6692;50.710;7.180;2024-01-25T12:02:50;11.40;99.90
13251;DHT22;6692;50.710;7.180;2024-01-25T12:04:50;11.50;99.90
13251;DHT22;6692;50.710;7.180;2024-01-25T12:06:51;11.50;99.90
13251;DHT22;6692;50.710;7.180;2024-01-25T12:08:52;11.50;99.90
13251;DHT22;6692;50.710;7.180;2024-01-25T12:11:02;11.50;99.90
13251;DHT22;6692;50.710;7.180;2024-01-25T12:13:02;11.60;99.90
13251;DHT22;6692;50.710;7.180;2024-01-25T12:15:05;11.70;99.90
13251;DHT22;6692;50.710;7.180;2024-01-25T12:17:05;11.70;99.90
13251;DHT22;6692;50.710;7.180;2024-01-25T12:19:07;11.90;99.90
13251;DHT22;6692;50.710;7.180;2024-01-25T12:21:07;11.90;99.90
13251;DHT22;6692;50.710;7.180;2024-01-25T12:23:08;11.90;99.90
13251;DHT22;6692;50.710;7.180;2024-01-25T12:25:09;12.00;99.90
13251;DHT22;6692;50.710;7.180;2024-01-25T12:27:10;12.00;99.90
13251;DHT22;6692;50.710;7.180;2024-01-25T12:29:11;12.10;99.90
13251;DHT22;6692;50.710;7.180;2024-01-25T12:31:12;12.10;99.90
13251;DHT22;6692;50.710;7.180;2024-01-25T12:33:12;12.20;99.90
13251;DHT22;6692;50.710;7.180;2024-01-25T12:35:13;12.20;99.90
13251;DHT22;6692;50.710;7.180;2024-01-25T12:37:15;12.30;99.90
13251;DHT22;6692;50.710;7.180;2024-01-25T12:39:15;12.30;99.90
13251;DHT22;6692;50.710;7.180;2024-01-25T12:41:16;12.30;99.90
13251;DHT22;6692;50.710;7.180;2024-01-25T12:43:17;12.30;99.90
13251;DHT22;6692;50.710;7.180;2024-01-25T12:45:17;12.40;99.90
13251;DHT22;6692;50.710;7.180;2024-01-25T12:47:18;12.50;99.90
13251;DHT22;6692;50.710;7.180;2024-01-25T12:49:19;12.50;99.90
13251;DHT22;6692;50.710;7.180;2024-01-25T12:51:19;12.60;99.90
13251;DHT22;6692;50.710;7.180;2024-01-25T12:53:20;12.70;99.90
13251;DHT22;6692;50.710;7.180;2024-01-25T12:55:21;12.60;99.90
13251;DHT22;6692;50.710;7.180;2024-01-25T12:57:21;12.60;99.90
13251;DHT22;6692;50.710;7.180;2024-01-25T12:59:22;12.60;99.90
13251;DHT22;6692;50.710;7.180;2024-01-25T13:01:23;12.80;99.90
13251;DHT22;6692;50.710;7.180;2024-01-25T13:03:24;13.00;99.90
13251;DHT22;6692;50.710;7.180;2024-01-25T13:05:25;13.00;99.90